Time;durP1;ratioP1;P1;durP2;ratioP2;P2;SDS_P1;SDS_P2;PMS_P1;PMS_P2;Temp;Humidity;BMP_temperature;BMP_pressure;BME280_temperature;BME280_humidity;BME280_pressure;Samples;Min_cycle;Max_cycle;Signal;HPM_P1;HPM_P2
2021/03/27 00:00:51;;;;;;;103.77;53.93;;;;;;;4.26;51.11;99474.63;116663;1199;101621;-74
2021/03/27 00:03:26;;;;;;;105.37;51.60;;;;;;;4.20;52.01;99464.34;115003;1198;103044;-74
2021/03/27 00:06:19;;;;;;;110.07;55.50;;;;;;;4.14;51.91;99461.03;114891;1200;103066;-75
2021/03/27 00:08:54;;;;;;;109.57;56.10;;;;;;;4.10;51.71;99466.46;115004;1199;103209;-77
2021/03/27 00:11:52;;;;;;;103.17;53.33;;;;;;;4.05;51.24;99463.18;114959;1199;103153;-77
2021/03/27 00:14:33;;;;;;;103.45;55.95;;;;;;;4.03;50.96;99465.86;114959;1199;103193;-77
2021/03/27 00:17:32;;;;;;;108.23;56.83;;;;;;;4.06;51.34;99467.53;115088;1199;103031;-75
2021/03/27 00:20:14;;;;;;;111.57;61.63;;;;;;;4.13;51.30;99459.31;115059;1199;103139;-75
2021/03/27 00:23:12;;;;;;;132.50;68.55;;;;;;;4.16;51.07;99460.95;115014;1199;103067;-77
2021/03/27 00:25:51;;;;;;;170.83;96.30;;;;;;;4.19;51.08;99457.36;114923;1199;103146;-77
2021/03/27 00:28:27;;;;;;;147.40;79.67;;;;;;;4.21;51.11;99468.69;116636;1199;102033;-77
2021/03/27 00:31:02;;;;;;;140.97;74.03;;;;;;;4.18;50.75;99461.75;116110;1199;103142;-79
2021/03/27 00:33:40;;;;;;;138.37;75.20;;;;;;;4.18;51.39;99459.13;115084;1200;103136;-78
2021/03/27 00:36:19;;;;;;;111.18;61.98;;;;;;;4.17;51.45;99453.02;114991;1199;103293;-78
2021/03/27 00:39:04;;;;;;;119.87;61.93;;;;;;;4.12;50.99;99454.97;114950;1199;103184;-76
2021/03/27 00:41:48;;;;;;;105.17;55.70;;;;;;;4.05;51.12;99450.86;115001;1200;103137;-76
2021/03/27 00:44:19;;;;;;;103.87;56.73;;;;;;;3.95;51.08;99453.01;114979;1199;103035;-77
2021/03/27 00:46:47;;;;;;;104.67;58.83;;;;;;;3.94;51.41;99445.16;114965;1200;103060;-77
2021/03/27 00:49:20;;;;;;;102.93;54.23;;;;;;;3.95;51.43;99444.23;114950;1199;103586;-76
2021/03/27 00:52:02;;;;;;;104.40;55.85;;;;;;;3.95;51.50;99453.01;114957;1197;103150;-76
2021/03/27 00:54:46;;;;;;;111.20;60.85;;;;;;;3.97;51.51;99453.81;115719;1200;101787;-76
2021/03/27 00:57:27;;;;;;;140.00;73.20;;;;;;;4.01;51.67;99446.63;114880;1200;103031;-75
2021/03/27 01:00:15;;;;;;;127.00;70.00;;;;;;;4.00;51.83;99439.66;116717;1200;100978;-77
2021/03/27 01:02:52;;;;;;;108.20;58.40;;;;;;;4.04;51.39;99432.51;116589;1198;101104;-76
2021/03/27 01:05:23;;;;;;;98.43;54.23;;;;;;;4.05;51.56;99429.80;114940;1199;103070;-75
2021/03/27 01:07:54;;;;;;;88.30;50.35;;;;;;;4.03;51.59;99436.90;114856;1200;103207;-76
2021/03/27 01:10:29;;;;;;;94.20;52.35;;;;;;;4.04;52.27;99433.35;115152;1200;103162;-74
2021/03/27 01:13:00;;;;;;;93.60;50.55;;;;;;;4.06;52.23;99433.30;114969;1199;103079;-74
2021/03/27 01:15:33;;;;;;;94.90;52.67;;;;;;;4.11;52.05;99436.59;114954;1200;103038;-75
2021/03/27 01:18:19;;;;;;;92.70;50.30;;;;;;;4.14;51.88;99436.47;115059;1200;103491;-74
2021/03/27 01:20:55;;;;;;;93.83;50.77;;;;;;;4.13;52.41;99432.98;115047;1199;104768;-74
2021/03/27 01:23:24;;;;;;;88.73;48.83;;;;;;;4.14;51.90;99441.73;114960;1200;103037;-76
2021/03/27 01:26:00;;;;;;;86.40;46.53;;;;;;;4.15;52.53;99440.81;114938;1200;103057;-75
2021/03/27 01:28:50;;;;;;;85.70;46.60;;;;;;;4.11;52.65;99441.84;114921;1199;103182;-75
2021/03/27 01:31:24;;;;;;;87.20;47.07;;;;;;;4.04;52.48;99449.14;114839;1199;103143;-74
2021/03/27 01:33:55;;;;;;;89.33;50.47;;;;;;;4.04;52.67;99441.25;114883;1199;103197;-75
2021/03/27 01:36:36;;;;;;;89.20;49.80;;;;;;;4.07;52.23;99438.50;114847;1200;103152;-74
2021/03/27 01:39:12;;;;;;;91.43;48.17;;;;;;;4.06;52.67;99428.88;114861;1200;104335;-77
2021/03/27 01:41:57;;;;;;;88.43;47.00;;;;;;;4.02;52.14;99427.29;114979;1200;103121;-75
2021/03/27 01:44:27;;;;;;;84.87;45.73;;;;;;;3.96;52.82;99422.27;114964;1200;103056;-77
2021/03/27 01:46:59;;;;;;;82.97;48.90;;;;;;;3.92;52.86;99424.17;114988;1200;103117;-75
2021/03/27 01:49:35;;;;;;;88.17;47.17;;;;;;;3.94;52.43;99421.47;115020;1200;103529;-78
2021/03/27 01:52:07;;;;;;;77.03;42.90;;;;;;;3.99;53.04;99424.78;115023;1198;103529;-75
2021/03/27 01:55:23;;;;;;;85.73;45.27;;;;;;;4.00;52.40;99422.09;114836;1200;103057;-77
2021/03/27 01:57:58;;;;;;;87.35;46.85;;;;;;;4.04;52.96;99429.88;114744;1200;103111;-77
2021/03/27 02:00:43;;;;;;;94.07;52.67;;;;;;;4.09;52.64;99430.52;115061;1199;103191;-77
2021/03/27 02:03:28;;;;;;;77.23;40.93;;;;;;;4.12;52.63;99422.50;114953;1199;103019;-75
2021/03/27 02:06:06;;;;;;;82.35;45.20;;;;;;;4.05;52.97;99423.70;115019;1199;103172;-77
2021/03/27 02:08:45;;;;;;;83.13;46.10;;;;;;;3.98;52.94;99415.16;114978;1199;103059;-75
2021/03/27 02:11:44;;;;;;;80.23;43.73;;;;;;;3.96;53.38;99420.51;114946;1199;103047;-76
2021/03/27 02:14:27;;;;;;;83.10;43.90;;;;;;;3.97;53.20;99423.98;114931;1199;103276;-77
2021/03/27 02:17:12;;;;;;;74.33;39.50;;;;;;;3.95;53.91;99418.79;114972;1199;103027;-77
2021/03/27 02:20:12;;;;;;;83.87;43.83;;;;;;;3.96;53.39;99417.88;115545;1200;101943;-76
2021/03/27 02:23:39;;;;;;;75.77;42.50;;;;;;;3.99;53.63;99409.86;114971;1199;103034;-78
2021/03/27 02:26:16;;;;;;;76.35;40.63;;;;;;;4.00;53.53;99410.70;115269;1202;100989;-77
2021/03/27 02:28:57;;;;;;;72.70;40.05;;;;;;;4.00;54.31;99410.70;114675;1203;103207;-76
2021/03/27 02:31:41;;;;;;;76.25;41.25;;;;;;;3.96;54.40;99406.47;114893;1199;103213;-75
2021/03/27 02:34:17;;;;;;;76.08;39.68;;;;;;;3.95;53.76;99415.28;115050;1200;103257;-78
2021/03/27 02:37:03;;;;;;;77.20;42.13;;;;;;;3.93;54.47;99410.09;115001;1199;103146;-78
2021/03/27 02:39:46;;;;;;;76.40;40.90;;;;;;;3.92;54.69;99408.38;115048;1199;103172;-77
2021/03/27 02:42:49;;;;;;;72.50;38.07;;;;;;;3.87;54.95;99405.91;114962;1200;103066;-76
2021/03/27 02:45:48;;;;;;;73.40;42.45;;;;;;;3.87;54.27;99403.28;114925;1200;103130;-78
2021/03/27 02:48:30;;;;;;;79.77;43.63;;;;;;;3.91;53.77;99417.20;115046;1199;103044;-76
2021/03/27 02:51:17;;;;;;;82.43;46.47;;;;;;;3.96;53.98;99423.14;114975;1200;103015;-78
2021/03/27 02:54:03;;;;;;;82.87;44.83;;;;;;;4.01;53.91;99423.81;114927;1199;103069;-77
2021/03/27 02:56:40;;;;;;;83.07;45.07;;;;;;;4.05;53.88;99421.91;115042;1200;103328;-78
2021/03/27 02:59:09;;;;;;;107.15;55.00;;;;;;;4.09;53.78;99420.86;115017;1200;103133;-76
2021/03/27 03:01:45;;;;;;;100.85;54.35;;;;;;;4.12;54.23;99418.11;114952;1200;103136;-76
2021/03/27 03:04:44;;;;;;;116.43;60.00;;;;;;;4.11;54.24;99416.39;114911;1200;103076;-75
2021/03/27 03:07:34;;;;;;;95.33;52.10;;;;;;;4.12;54.34;99419.88;115041;1200;103057;-75
2021/03/27 03:10:32;;;;;;;76.23;42.37;;;;;;;4.09;54.03;99417.36;115023;1200;103187;-76
2021/03/27 03:13:27;;;;;;;81.50;42.70;;;;;;;4.04;54.39;99420.19;114936;1199;103185;-76
2021/03/27 03:16:19;;;;;;;62.00;33.10;;;;;;;4.08;54.33;99418.28;115032;1199;103120;-76
2021/03/27 03:19:17;;;;;;;81.13;43.33;;;;;;;4.09;54.19;99415.60;114981;1200;103036;-75
2021/03/27 03:22:06;;;;;;;79.00;45.40;;;;;;;4.12;54.20;99414.61;115064;1199;103181;-76
2021/03/27 03:24:41;;;;;;;76.00;43.40;;;;;;;4.13;53.90;99417.19;115024;1200;103079;-77
2021/03/27 03:27:49;;;;;;;86.37;48.13;;;;;;;4.15;54.64;99411.84;115019;1199;103114;-78
2021/03/27 03:30:27;;;;;;;90.27;50.33;;;;;;;4.12;54.53;99410.21;115053;1199;103130;-78
2021/03/27 03:33:21;;;;;;;104.00;55.90;;;;;;;4.12;54.13;99411.97;114932;1200;103143;-78
2021/03/27 03:35:59;;;;;;;75.77;42.30;;;;;;;4.12;54.45;99404.08;115023;1200;103145;-76
2021/03/27 03:39:00;;;;;;;71.83;41.07;;;;;;;4.10;55.10;99398.89;115014;1199;103210;-75
2021/03/27 03:41:42;;;;;;;75.73;42.17;;;;;;;4.01;55.18;99400.13;115000;1199;103047;-78
2021/03/27 03:44:09;;;;;;;76.57;41.50;;;;;;;3.93;55.00;99403.96;115003;1199;103143;-76
2021/03/27 03:47:07;;;;;;;65.88;37.78;;;;;;;3.86;54.86;99403.36;114985;1200;103124;-77
2021/03/27 03:50:04;;;;;;;81.43;45.27;;;;;;;3.86;54.59;99403.36;115000;1199;103069;-77
2021/03/27 03:52:58;;;;;;;80.17;44.23;;;;;;;3.90;54.87;99402.32;114960;1200;103184;-76
2021/03/27 03:55:30;;;;;;;;;;;;;;;3.94;55.35;99397.78;114916;1207;103131;-77
2021/03/27 03:58:04;;;;;;;81.75;44.60;;;;;;;3.95;54.71;99403.00;114978;1200;103111;-76
2021/03/27 04:00:41;;;;;;;80.67;45.13;;;;;;;3.96;54.39;99406.47;115165;1199;103200;-77
2021/03/27 04:03:27;;;;;;;89.00;47.60;;;;;;;3.96;54.83;99407.34;114963;1199;103028;-77
2021/03/27 04:06:02;;;;;;;92.60;50.45;;;;;;;3.98;54.58;99409.90;115040;1200;103140;-77
2021/03/27 04:08:36;;;;;;;99.85;51.90;;;;;;;3.96;54.43;99417.88;115013;1200;103182;-75
2021/03/27 04:11:34;;;;;;;89.67;49.63;;;;;;;3.96;54.81;99411.73;115030;1200;103145;-75
2021/03/27 04:14:35;;;;;;;91.40;51.10;;;;;;;3.93;54.90;99404.83;115011;1200;103529;-76
2021/03/27 04:17:29;;;;;;;106.63;57.60;;;;;;;3.94;54.61;99417.08;114723;1199;103544;-76
2021/03/27 04:20:17;;;;;;;104.08;56.13;;;;;;;3.90;54.60;99407.59;115005;1200;103182;-75
2021/03/27 04:22:59;;;;;;;81.73;42.20;;;;;;;3.90;55.11;99407.59;114841;1200;103130;-76
2021/03/27 04:25:33;;;;;;;84.17;47.33;;;;;;;3.81;55.00;99400.05;115528;1199;103072;-76
2021/03/27 04:28:06;;;;;;;81.33;43.30;;;;;;;3.74;56.04;99404.70;114870;1199;103147;-77
2021/03/27 04:30:49;;;;;;;87.03;48.73;;;;;;;3.64;54.94;99400.71;114918;1200;103062;-79
2021/03/27 04:33:30;;;;;;;77.85;42.85;;;;;;;3.58;55.60;99404.45;114956;1199;103359;-77
2021/03/27 04:36:17;;;;;;;99.75;52.80;;;;;;;3.58;55.78;99404.45;114973;1199;103111;-76
2021/03/27 04:39:25;;;;;;;117.67;64.27;;;;;;;3.62;55.01;99406.05;115010;1199;103047;-75
2021/03/27 04:42:03;;;;;;;127.33;70.03;;;;;;;3.61;54.94;99412.23;115001;1200;103098;-76
2021/03/27 04:44:46;;;;;;;122.90;67.75;;;;;;;3.63;55.00;99412.15;115030;1199;103034;-76
2021/03/27 04:47:27;;;;;;;123.37;69.77;;;;;;;3.65;55.11;99419.08;115079;1199;103140;-75
2021/03/27 04:50:10;;;;;;;127.10;67.60;;;;;;;3.69;55.34;99417.18;115050;1199;103083;-75
2021/03/27 04:53:10;;;;;;;140.10;74.70;;;;;;;3.72;55.59;99412.64;114983;1199;103124;-75
2021/03/27 04:56:07;;;;;;;127.73;73.23;;;;;;;3.75;55.89;99414.31;114877;1199;103139;-76
2021/03/27 04:58:42;;;;;;;137.57;76.53;;;;;;;3.75;55.15;99413.44;115006;1199;103047;-74
2021/03/27 05:01:45;;;;;;;138.07;74.97;;;;;;;3.77;56.01;99412.48;115027;1198;103200;-75
2021/03/27 05:04:36;;;;;;;120.13;62.10;;;;;;;3.78;55.62;99413.32;114985;1199;103146;-75
2021/03/27 05:07:48;;;;;;;90.63;48.97;;;;;;;3.73;55.65;99413.52;115032;1199;103034;-76
2021/03/27 05:10:28;;;;;;;98.13;53.07;;;;;;;3.72;55.58;99415.27;114999;1200;103178;-76
2021/03/27 05:13:16;;;;;;;123.45;68.10;;;;;;;3.78;55.26;99415.95;115021;1200;103047;-76
2021/03/27 05:16:15;;;;;;;129.45;71.30;;;;;;;3.81;55.99;99416.70;115100;1199;103168;-78
2021/03/27 05:18:52;;;;;;;129.80;72.30;;;;;;;3.84;55.47;99410.45;115001;1199;103037;-77
2021/03/27 05:21:35;;;;;;;133.47;72.63;;;;;;;3.86;55.85;99412.13;115015;1199;103156;-77
2021/03/27 05:24:09;;;;;;;123.63;67.60;;;;;;;3.88;55.89;99414.68;115024;1199;103050;-77
2021/03/27 05:26:39;;;;;;;88.97;46.47;;;;;;;3.94;55.69;99408.31;115066;1200;103140;-76
2021/03/27 05:29:18;;;;;;;74.17;42.13;;;;;;;4.01;55.54;99412.41;115018;1200;103035;-75
2021/03/27 05:32:03;;;;;;;68.60;39.20;;;;;;;4.09;55.80;99412.97;115028;1199;103038;-76
2021/03/27 05:34:41;;;;;;;68.67;38.43;;;;;;;4.16;56.55;99409.17;115048;1198;103118;-76
2021/03/27 05:37:26;;;;;;;79.50;44.17;;;;;;;4.22;56.26;99410.69;115050;1200;103034;-76
2021/03/27 05:40:21;;;;;;;76.80;46.20;;;;;;;4.27;56.52;99413.15;115053;1200;103092;-77
2021/03/27 05:43:31;;;;;;;88.60;51.35;;;;;;;4.34;56.54;99409.31;115080;1199;103166;-77
2021/03/27 05:46:35;;;;;;;110.70;63.17;;;;;;;4.42;56.12;99417.76;114990;1200;103488;-75
2021/03/27 05:49:35;;;;;;;131.70;73.53;;;;;;;4.41;56.21;99418.67;115029;1200;103031;-75
2021/03/27 05:52:32;;;;;;;113.83;65.40;;;;;;;4.42;55.97;99416.92;115028;1199;103147;-73
2021/03/27 05:55:18;;;;;;;113.35;63.60;;;;;;;4.49;56.30;99422.77;115084;1200;103080;-74
2021/03/27 05:58:25;;;;;;;122.40;67.40;;;;;;;4.55;56.07;99411.98;115038;1200;103281;-75
2021/03/27 06:00:55;;;;;;;113.77;66.67;;;;;;;4.62;56.25;99413.44;114971;1199;103072;-74
2021/03/27 06:04:11;;;;;;;118.30;70.60;;;;;;;4.66;56.02;99406.25;115051;1200;103063;-75
2021/03/27 06:07:15;;;;;;;84.80;48.27;;;;;;;4.72;56.13;99409.47;114736;1200;103111;-76
2021/03/27 06:09:58;;;;;;;80.55;41.85;;;;;;;4.81;56.48;99405.59;115045;1199;103059;-76
2021/03/27 06:12:43;;;;;;;70.27;38.87;;;;;;;4.94;56.54;99407.67;115027;1200;104677;-75
2021/03/27 06:15:13;;;;;;;66.17;38.30;;;;;;;5.08;56.76;99405.30;114875;1199;103526;-74
2021/03/27 06:18:08;;;;;;;68.10;35.20;;;;;;;5.22;56.92;99415.22;114984;1199;103038;-74
2021/03/27 06:21:08;;;;;;;63.97;34.33;;;;;;;5.48;56.94;99405.27;114958;1199;103179;-74
2021/03/27 06:23:54;;;;;;;64.13;32.57;;;;;;;5.73;56.87;99401.47;114910;1199;103063;-76
2021/03/27 06:26:31;;;;;;;66.27;35.73;;;;;;;5.96;56.77;99400.38;115015;1199;103329;-76
2021/03/27 06:29:08;;;;;;;61.37;33.57;;;;;;;6.16;57.03;99409.13;114958;1199;103032;-75
2021/03/27 06:31:57;;;;;;;56.30;30.20;;;;;;;6.37;56.88;99409.85;114980;1199;103121;-76
2021/03/27 06:34:47;;;;;;;60.80;32.70;;;;;;;6.57;57.07;99400.08;114965;1200;103117;-77
2021/03/27 06:37:39;;;;;;;51.93;27.50;;;;;;;6.73;56.78;99397.50;114997;1199;103043;-79
2021/03/27 06:40:41;;;;;;;54.20;30.37;;;;;;;6.89;56.91;99406.36;114952;1199;103294;-75
2021/03/27 06:43:36;;;;;;;56.83;32.00;;;;;;;7.06;56.86;99401.95;115010;1200;103124;-70
2021/03/27 06:46:27;;;;;;;51.05;28.15;;;;;;;7.21;56.80;99400.28;114983;1200;103258;-74
2021/03/27 06:49:15;;;;;;;51.80;28.50;;;;;;;7.36;57.04;99394.17;115006;1199;103139;-74
2021/03/27 06:51:51;;;;;;;54.73;30.60;;;;;;;7.51;56.62;99392.48;114820;1200;103225;-72
2021/03/27 06:54:36;;;;;;;51.23;29.53;;;;;;;7.65;56.92;99399.66;114956;1199;103632;-75
2021/03/27 06:57:07;;;;;;;52.50;29.55;;;;;;;7.80;56.83;99397.94;114961;1200;103200;-75
2021/03/27 07:00:09;;;;;;;48.60;27.60;;;;;;;7.94;56.59;99388.38;114942;1200;103159;-76
2021/03/27 07:02:45;;;;;;;53.50;27.73;;;;;;;8.08;56.85;99395.53;114993;1198;103118;-75
2021/03/27 07:05:52;;;;;;;49.17;27.47;;;;;;;8.20;56.50;99386.89;115019;1199;103117;-78
2021/03/27 07:08:57;;;;;;;49.63;28.50;;;;;;;8.38;56.54;99389.39;115002;1200;103332;-79
2021/03/27 07:11:54;;;;;;;48.45;24.05;;;;;;;8.52;56.37;99383.34;114926;1200;103037;-77
2021/03/27 07:14:58;;;;;;;49.97;26.10;;;;;;;8.67;56.37;99384.22;114878;1198;103143;-77
2021/03/27 07:18:03;;;;;;;48.03;26.55;;;;;;;8.81;56.32;99392.17;114997;1199;103038;-76
2021/03/27 07:21:05;;;;;;;45.87;25.87;;;;;;;8.96;56.28;99381.59;115030;1200;103066;-74
2021/03/27 07:24:05;;;;;;;52.30;27.70;;;;;;;9.12;56.41;99384.16;114992;1199;103173;-72
2021/03/27 07:26:48;;;;;;;44.57;24.47;;;;;;;9.24;56.06;99381.59;114997;1200;103561;-77
2021/03/27 07:29:47;;;;;;;43.50;23.45;;;;;;;9.39;55.76;99384.24;115014;1200;103172;-78
2021/03/27 07:32:52;;;;;;;48.40;26.43;;;;;;;9.56;56.17;99380.52;115019;1200;104170;-77
2021/03/27 07:35:52;;;;;;;49.37;25.73;;;;;;;9.75;56.40;99368.73;115057;1199;103034;-78
2021/03/27 07:38:22;;;;;;;47.80;25.30;;;;;;;9.95;56.14;99368.27;114963;1199;103105;-77
2021/03/27 07:41:08;;;;;;;47.97;26.37;;;;;;;10.23;55.63;99373.58;114971;1200;103063;-73
2021/03/27 07:43:35;;;;;;;46.68;25.63;;;;;;;11.52;54.97;99368.31;114964;1200;103069;-81
2021/03/27 07:46:27;;;;;;;43.40;25.43;;;;;;;12.88;53.12;99373.41;114998;1199;103088;-74
2021/03/27 07:48:53;;;;;;;42.20;24.97;;;;;;;14.19;53.94;99358.56;115008;1200;103162;-76
2021/03/27 07:51:34;;;;;;;42.20;25.30;;;;;;;15.38;53.99;99365.52;115008;1200;103137;-77
2021/03/27 07:54:34;;;;;;;42.80;26.60;;;;;;;16.51;53.18;99360.74;114976;1199;103063;-76
2021/03/27 07:57:16;;;;;;;41.27;25.57;;;;;;;17.66;53.65;99350.78;115001;1200;103111;-79
2021/03/27 08:00:02;;;;;;;46.47;28.67;;;;;;;18.64;53.37;99357.27;114981;1200;103032;-77
2021/03/27 08:02:55;;;;;;;37.55;23.30;;;;;;;19.42;51.65;99362.81;114999;1200;103504;-74
2021/03/27 08:05:46;;;;;;;38.97;26.67;;;;;;;19.68;51.46;99364.62;114979;1199;103073;-76
2021/03/27 08:08:51;;;;;;;45.93;30.00;;;;;;;19.88;51.63;99362.48;114987;1200;103069;-76
2021/03/27 08:11:48;;;;;;;38.87;26.83;;;;;;;20.26;51.55;99362.06;115012;1199;103526;-80
2021/03/27 08:14:24;;;;;;;39.93;26.57;;;;;;;20.80;52.15;99364.27;115009;1199;103065;-79
2021/03/27 08:17:10;;;;;;;38.60;27.17;;;;;;;20.88;49.09;99361.56;114953;1199;103034;-73
2021/03/27 08:20:16;;;;;;;36.47;23.97;;;;;;;20.61;48.97;99371.70;114985;1199;103126;-76
2021/03/27 08:22:58;;;;;;;43.60;28.70;;;;;;;20.73;50.68;99366.79;114929;1200;103188;-76
2021/03/27 08:25:41;;;;;;;38.33;26.03;;;;;;;21.07;48.06;99357.63;114920;1199;103120;-74
2021/03/27 08:28:39;;;;;;;36.00;24.90;;;;;;;20.70;45.34;99356.31;114939;1200;103644;-80
2021/03/27 08:31:24;;;;;;;40.23;27.13;;;;;;;20.52;48.30;99346.55;115028;1200;103098;-68
2021/03/27 08:34:10;;;;;;;36.50;25.33;;;;;;;21.07;49.38;99351.40;114939;1200;103088;-76
2021/03/27 08:37:03;;;;;;;35.90;24.70;;;;;;;21.68;49.06;99338.17;114945;1199;103136;-77
2021/03/27 08:39:49;;;;;;;37.78;25.63;;;;;;;22.06;49.69;99339.30;114885;1199;103072;-74
2021/03/27 08:42:28;;;;;;;36.87;25.00;;;;;;;22.39;48.60;99331.77;114851;1200;103130;-74
2021/03/27 08:44:58;;;;;;;36.20;25.10;;;;;;;22.59;48.49;99342.98;114958;1199;103586;-75
2021/03/27 08:47:45;;;;;;;37.20;26.57;;;;;;;22.55;47.76;99330.81;114951;1199;103072;-75
2021/03/27 08:50:51;;;;;;;37.50;26.10;;;;;;;22.60;48.73;99327.55;114964;1199;103213;-69
2021/03/27 08:53:50;;;;;;;37.67;25.23;;;;;;;23.21;48.79;99321.16;114970;1200;103127;-69
2021/03/27 08:56:26;;;;;;;35.60;25.95;;;;;;;23.74;48.62;99317.42;114928;1200;103105;-68
2021/03/27 08:59:25;;;;;;;36.75;24.75;;;;;;;24.27;48.72;99311.72;114919;1199;103522;-69
2021/03/27 09:02:26;;;;;;;36.43;24.53;;;;;;;24.74;48.76;99316.73;114881;1200;103076;-69
2021/03/27 09:05:20;;;;;;;41.67;28.50;;;;;;;25.03;48.44;99304.79;114827;1200;103281;-67
2021/03/27 09:08:27;;;;;;;36.40;24.53;;;;;;;25.27;48.25;99303.45;114897;1200;103171;-66
2021/03/27 09:11:07;;;;;;;53.45;28.95;;;;;;;25.41;48.16;99319.86;114742;1199;103150;-66
2021/03/27 09:14:18;;;;;;;38.23;23.93;;;;;;;25.25;47.37;99308.26;114889;1199;103333;-66
2021/03/27 09:16:45;;;;;;;37.80;24.23;;;;;;;25.12;46.72;99314.48;114809;1200;103222;-68
2021/03/27 09:19:39;;;;;;;33.95;22.40;;;;;;;25.22;46.53;99305.11;114807;1199;103124;-69
2021/03/27 09:22:28;;;;;;;41.07;23.33;;;;;;;25.11;45.92;99311.94;114858;1199;103136;-73
2021/03/27 09:25:42;;;;;;;41.73;24.67;;;;;;;24.94;46.00;99314.14;114933;1199;103131;-71
2021/03/27 09:28:35;;;;;;;36.45;24.20;;;;;;;24.79;45.34;99319.70;114710;1203;103787;-71
2021/03/27 09:31:42;;;;;;;35.10;22.35;;;;;;;24.38;44.88;99326.69;114659;1202;103152;-71
2021/03/27 09:34:47;;;;;;;36.00;24.23;;;;;;;24.04;44.63;99326.36;114946;1199;103594;-71
2021/03/27 09:37:58;;;;;;;36.77;23.93;;;;;;;23.89;44.86;99309.23;114997;1199;103621;-73
2021/03/27 09:40:40;;;;;;;37.67;23.27;;;;;;;23.82;44.36;99308.34;114960;1199;103069;-71
2021/03/27 09:43:26;;;;;;;36.43;24.63;;;;;;;23.93;44.51;99311.38;114930;1199;103185;-73
2021/03/27 09:46:00;;;;;;;37.93;25.83;;;;;;;23.94;44.08;99310.35;114999;1199;103083;-76
2021/03/27 09:48:34;;;;;;;;;;;;;;;24.08;42.82;99299.63;114917;1207;102421;-78
2021/03/27 09:51:20;;;;;;;38.05;22.60;;;;;;;23.94;43.69;99314.92;115027;1200;103069;-76
2021/03/27 09:54:04;;;;;;;39.73;23.67;;;;;;;23.68;43.72;99304.61;114903;1200;103172;-74
2021/03/27 09:57:04;;;;;;;36.60;23.85;;;;;;;23.28;43.27;99297.66;114976;1199;103113;-76
2021/03/27 09:59:36;;;;;;;35.25;23.45;;;;;;;22.89;43.53;99304.20;114972;1200;103065;-72
2021/03/27 10:02:21;;;;;;;37.27;24.43;;;;;;;22.62;43.50;99300.27;114925;1199;103172;-67
2021/03/27 10:04:54;;;;;;;39.70;24.23;;;;;;;22.27;42.70;99298.82;114944;1200;103028;-80
2021/03/27 10:07:47;;;;;;;34.30;22.67;;;;;;;21.93;42.55;99293.86;115064;1200;103086;-80
2021/03/27 10:10:36;;;;;;;42.03;25.83;;;;;;;21.56;42.44;99296.24;114963;1199;103066;-78
2021/03/27 10:13:30;;;;;;;38.30;24.13;;;;;;;21.25;41.64;99306.02;115151;1199;103101;-75
2021/03/27 10:16:03;;;;;;;40.63;25.30;;;;;;;20.80;42.39;99296.69;114958;1198;103021;-74
2021/03/27 10:18:46;;;;;;;42.10;26.30;;;;;;;20.48;41.60;99288.46;115077;1200;103133;-74
2021/03/27 10:21:46;;;;;;;40.67;25.33;;;;;;;19.97;41.53;99287.78;114906;1199;103139;-81
2021/03/27 10:24:45;;;;;;;39.03;23.20;;;;;;;19.68;41.61;99299.86;114883;1200;103067;-74
2021/03/27 10:27:17;;;;;;;40.37;24.97;;;;;;;19.34;41.28;99283.58;114983;1200;103130;-75
2021/03/27 10:30:14;;;;;;;38.55;22.25;;;;;;;19.10;38.94;99283.47;114941;1199;103513;-75
2021/03/27 10:32:53;;;;;;;46.53;23.00;;;;;;;18.72;40.50;99289.98;114874;1198;103490;-76
2021/03/27 10:35:26;;;;;;;43.65;23.60;;;;;;;18.56;40.51;99284.47;114918;1199;103149;-75
2021/03/27 10:38:05;;;;;;;35.75;21.85;;;;;;;18.48;40.18;99293.36;114875;1199;103108;-76
2021/03/27 10:40:46;;;;;;;38.70;21.53;;;;;;;18.24;40.55;99281.41;114888;1199;103195;-73
2021/03/27 10:43:32;;;;;;;35.40;19.73;;;;;;;18.23;40.46;99282.41;114649;1200;103303;-74
2021/03/27 10:45:59;;;;;;;37.07;22.33;;;;;;;18.14;40.54;99276.09;114917;1200;103095;-72
2021/03/27 10:48:41;;;;;;;42.43;22.20;;;;;;;18.20;40.50;99263.88;114780;1199;103095;-71
2021/03/27 10:51:37;;;;;;;44.53;22.43;;;;;;;18.22;39.93;99264.56;114907;1199;103028;-74
2021/03/27 10:54:22;;;;;;;39.23;22.20;;;;;;;18.23;40.49;99268.95;114936;1199;103124;-79
2021/03/27 10:57:27;;;;;;;37.25;20.05;;;;;;;18.25;40.10;99268.78;114861;1200;103175;-78
2021/03/27 11:00:25;;;;;;;37.37;19.90;;;;;;;18.24;40.36;99267.95;114968;1198;103130;-81
2021/03/27 11:03:31;;;;;;;35.67;19.40;;;;;;;18.25;39.75;99258.87;114923;1199;103172;-76
2021/03/27 11:06:17;;;;;;;38.27;19.23;;;;;;;18.27;39.89;99267.64;114928;1200;103116;-74
2021/03/27 11:09:15;;;;;;;37.37;20.80;;;;;;;18.26;39.62;99257.87;114927;1199;103117;-76
2021/03/27 11:11:55;;;;;;;39.30;20.60;;;;;;;18.13;39.77;99260.11;114897;1200;103115;-74
2021/03/27 11:14:48;;;;;;;38.10;19.13;;;;;;;18.15;40.02;99261.63;114990;1199;103031;-72
2021/03/27 11:17:43;;;;;;;38.00;19.07;;;;;;;18.27;40.02;99250.63;114909;1199;103127;-75
2021/03/27 11:20:43;;;;;;;32.07;18.13;;;;;;;18.35;39.85;99250.69;114933;1199;103484;-79
2021/03/27 11:23:37;;;;;;;36.30;20.13;;;;;;;18.32;39.90;99252.86;114772;1200;103088;-76
2021/03/27 11:26:23;;;;;;;35.63;18.47;;;;;;;18.34;39.08;99250.86;114889;1199;103200;-74
2021/03/27 11:28:51;;;;;;;34.97;18.97;;;;;;;18.28;39.13;99257.70;115004;1199;103137;-77
2021/03/27 11:31:37;;;;;;;34.03;19.40;;;;;;;18.27;39.29;99262.25;114948;1199;103127;-76
2021/03/27 11:34:26;;;;;;;36.40;18.60;;;;;;;18.37;39.55;99248.68;115002;1200;103156;-78
2021/03/27 11:37:02;;;;;;;33.50;17.97;;;;;;;18.50;39.69;99250.13;114986;1198;103166;-76
2021/03/27 11:39:29;;;;;;;35.20;19.13;;;;;;;18.60;39.39;99259.78;114912;1199;103156;-81
2021/03/27 11:42:18;;;;;;;34.25;18.30;;;;;;;18.66;39.21;99265.53;114962;1199;103523;-77
2021/03/27 11:45:13;;;;;;;30.97;16.83;;;;;;;18.70;39.11;99265.05;114918;1199;103491;-74
2021/03/27 11:47:59;;;;;;;31.40;17.50;;;;;;;18.74;39.25;99260.20;114973;1200;103073;-74
2021/03/27 11:51:04;;;;;;;34.50;18.27;;;;;;;18.73;39.03;99261.20;114955;1199;103216;-76
2021/03/27 11:53:43;;;;;;;33.57;18.73;;;;;;;18.73;39.13;99255.81;114957;1200;103178;-72
2021/03/27 11:56:33;;;;;;;33.83;16.70;;;;;;;18.66;39.06;99252.89;114955;1199;103175;-72
2021/03/27 12:02:26;;;;;;;31.20;16.30;;;;;;;18.49;38.41;99246.56;114937;1199;103018;-75
2021/03/27 12:05:06;;;;;;;35.10;18.03;;;;;;;18.54;38.53;99246.11;115007;1199;103175;-73
2021/03/27 12:07:39;;;;;;;32.57;17.50;;;;;;;18.53;37.25;99255.19;114976;1199;103120;-70
2021/03/27 12:10:28;;;;;;;34.83;18.55;;;;;;;18.50;38.76;99255.51;115003;1199;103179;-73
2021/03/27 12:12:58;;;;;;;33.10;17.80;;;;;;;18.45;38.23;99255.96;114958;1199;103025;-83
2021/03/27 12:15:31;;;;;;;36.63;20.43;;;;;;;18.19;37.81;99262.19;115026;1200;103060;-76
2021/03/27 12:18:24;;;;;;;37.30;20.23;;;;;;;17.88;38.00;99246.42;114887;1199;103097;-72
2021/03/27 12:20:58;;;;;;;37.23;19.30;;;;;;;17.76;37.98;99239.58;114777;1199;103147;-70
2021/03/27 12:23:37;;;;;;;33.40;18.50;;;;;;;17.75;38.21;99241.41;114938;1200;103137;-70
2021/03/27 12:26:15;;;;;;;34.50;17.07;;;;;;;17.75;38.22;99240.58;114914;1199;103507;-71
2021/03/27 12:29:12;;;;;;;36.90;18.73;;;;;;;17.81;37.98;99229.20;114930;1198;103076;-71
2021/03/27 12:31:45;;;;;;;33.70;17.67;;;;;;;17.88;37.87;99226.73;114933;1200;103182;-71
2021/03/27 12:34:38;;;;;;;33.83;18.10;;;;;;;17.99;37.75;99223.84;114912;1199;103153;-70